Time;durP1;ratioP1;P1;durP2;ratioP2;P2;SDS_P1;SDS_P2;PMS_P1;PMS_P2;Temp;Humidity;BMP_temperature;BMP_pressure;BME280_temperature;BME280_humidity;BME280_pressure;Samples;Min_cycle;Max_cycle;Signal;HPM_P1;HPM_P2
2022/04/02 00:01:31;;;;;;;3.72;0.80;;;;;;;20.54;36.30;101042.34;4164540;28;20431;-64
2022/04/02 00:03:32;;;;;;;4.13;0.93;;;;;;;20.54;36.22;101042.34;4164332;28;20041;-64
2022/04/02 00:05:37;;;;;;;3.15;0.80;;;;;;;20.54;36.13;101047.91;4163435;28;20124;-64
2022/04/02 00:07:38;;;;;;;4.80;1.08;;;;;;;20.55;36.39;101052.34;4164888;28;20037;-64
2022/04/02 00:09:40;;;;;;;4.88;1.02;;;;;;;20.54;36.13;101053.47;4163232;28;20095;-64
2022/04/02 00:11:41;;;;;;;2.67;0.85;;;;;;;20.53;36.00;101057.38;4167290;28;20045;-65
2022/04/02 00:13:43;;;;;;;1.48;0.60;;;;;;;20.53;36.41;101063.75;4164355;28;20099;-64
2022/04/02 00:15:44;;;;;;;3.90;0.70;;;;;;;20.54;36.17;101064.59;4162162;28;20045;-64
2022/04/02 00:17:46;;;;;;;1.98;0.57;;;;;;;20.53;35.95;101079.59;4161854;28;20092;-65
2022/04/02 00:19:47;;;;;;;1.13;0.52;;;;;;;20.48;35.90;101077.66;4164546;28;20542;-66
2022/04/02 00:21:54;;;;;;;2.33;1.08;;;;;;;20.49;36.02;101084.03;4164420;28;20430;-66
2022/04/02 00:23:55;;;;;;;6.50;0.93;;;;;;;20.52;36.03;101098.19;4164474;28;20041;-65
2022/04/02 00:25:57;;;;;;;1.15;0.80;;;;;;;20.52;36.20;101094.59;4164563;28;20099;-66
2022/04/02 00:27:59;;;;;;;4.43;0.90;;;;;;;20.49;36.21;101100.72;4163817;28;20038;-63
2022/04/02 00:30:00;;;;;;;2.65;0.60;;;;;;;20.48;36.20;101105.44;4164017;28;20092;-64
2022/04/02 00:32:05;;;;;;;5.35;0.93;;;;;;;20.50;36.26;101114.34;4164512;28;20116;-64
2022/04/02 00:34:08;;;;;;;3.40;0.98;;;;;;;20.51;36.00;101126.28;4164083;28;20092;-65
2022/04/02 00:36:23;;;;;;;2.70;1.05;;;;;;;20.50;36.20;101127.41;4164296;28;20049;-64
2022/04/02 00:38:24;;;;;;;3.47;0.60;;;;;;;20.51;36.04;101134.63;4163478;28;20038;-64
2022/04/02 00:40:28;;;;;;;1.52;0.80;;;;;;;20.48;35.83;101135.16;4164165;28;20477;-64
2022/04/02 00:42:30;;;;;;;3.08;1.05;;;;;;;20.50;36.13;101144.06;4163522;28;20099;-64
2022/04/02 00:44:31;;;;;;;1.38;0.68;;;;;;;20.51;35.83;101148.53;4163566;28;20099;-64
2022/04/02 00:46:32;;;;;;;1.80;0.65;;;;;;;20.50;35.94;101153.25;4164057;28;20103;-64
2022/04/02 00:48:34;;;;;;;4.78;0.75;;;;;;;20.36;35.97;101135.38;4169082;28;20078;-64
2022/04/02 00:50:36;;;;;;;1.48;0.70;;;;;;;20.50;35.68;101163.53;4165333;28;20041;-65
2022/04/02 00:52:39;;;;;;;0.98;0.60;;;;;;;20.46;36.14;101168.78;4162119;28;20401;-65
2022/04/02 00:54:40;;;;;;;1.50;0.70;;;;;;;20.49;35.64;101173.00;4178801;28;20369;-65
2022/04/02 00:56:42;;;;;;;2.63;0.80;;;;;;;20.42;36.01;101161.25;4179668;28;20175;-65
2022/04/02 00:58:45;;;;;;;1.92;0.68;;;;;;;20.50;35.82;101183.00;4180223;28;20527;-65
2022/04/02 01:00:46;;;;;;;1.95;0.57;;;;;;;20.49;35.68;101184.13;4180450;28;20040;-65
2022/04/02 01:02:48;;;;;;;2.22;0.90;;;;;;;20.44;36.04;101172.94;4180175;28;20542;-64
2022/04/02 01:04:50;;;;;;;1.35;0.63;;;;;;;20.48;35.82;101188.84;4179848;28;20037;-64
2022/04/02 01:06:51;;;;;;;1.23;0.70;;;;;;;20.48;35.73;101187.97;4180143;28;20422;-64
2022/04/02 01:08:54;;;;;;;1.63;0.60;;;;;;;20.48;35.84;101199.09;4181160;28;20029;-64
2022/04/02 01:10:57;;;;;;;1.25;0.82;;;;;;;20.49;35.87;101203.56;4180006;28;20041;-64
2022/04/02 01:12:59;;;;;;;1.70;0.60;;;;;;;20.35;35.69;101182.91;4180135;28;20041;-64
2022/04/02 01:15:00;;;;;;;1.58;0.70;;;;;;;20.44;35.89;101203.53;4178819;28;20036;-64
2022/04/02 01:17:04;;;;;;;0.70;0.50;;;;;;;20.43;35.75;101207.38;4179919;28;20492;-64
2022/04/02 01:19:06;;;;;;;1.23;0.70;;;;;;;20.46;35.83;101212.41;4161325;28;20037;-64
2022/04/02 01:21:07;;;;;;;9.55;0.85;;;;;;;20.43;35.72;101212.94;4170226;28;20456;-64
2022/04/02 01:23:09;;;;;;;3.47;0.70;;;;;;;20.47;35.68;101214.94;4149829;28;20100;-64
2022/04/02 01:25:13;;;;;;;2.33;0.60;;;;;;;20.47;35.46;101225.19;4164766;28;20049;-63
2022/04/02 01:27:14;;;;;;;1.00;0.68;;;;;;;20.46;35.25;101224.38;4165697;28;20045;-64
2022/04/02 01:29:16;;;;;;;4.68;0.50;;;;;;;20.46;35.77;101234.66;4149904;28;20085;-64
2022/04/02 01:31:17;;;;;;;1.05;0.57;;;;;;;20.44;35.64;101236.88;4167481;28;20527;-64
2022/04/02 01:33:21;;;;;;;2.75;0.70;;;;;;;20.45;35.45;101252.44;4166558;28;20033;-63
2022/04/02 01:35:23;;;;;;;2.17;0.70;;;;;;;20.45;35.39;101249.66;4166363;28;20041;-64
2022/04/02 01:37:28;;;;;;;2.15;0.70;;;;;;;20.45;35.66;101261.63;4166429;28;20439;-64
2022/04/02 01:39:29;;;;;;;1.45;0.60;;;;;;;20.45;35.52;101261.63;4166252;28;20103;-64
2022/04/02 01:41:31;;;;;;;1.02;0.52;;;;;;;20.41;35.58;101259.66;4167333;28;20079;-64
2022/04/02 01:43:33;;;;;;;0.98;0.68;;;;;;;20.44;35.37;101276.63;4165968;28;20099;-64
2022/04/02 01:45:34;;;;;;;1.65;0.70;;;;;;;20.44;35.32;101273.00;4166145;28;20484;-65
2022/04/02 01:47:36;;;;;;;1.00;0.60;;;;;;;20.43;35.18;101271.31;4165465;28;20092;-64
2022/04/02 01:49:38;;;;;;;0.57;0.50;;;;;;;20.43;35.24;101285.22;4166804;28;20033;-64
2022/04/02 01:51:39;;;;;;;2.88;0.73;;;;;;;20.43;35.53;101285.22;4166850;28;20037;-65
2022/04/02 01:53:40;;;;;;;1.85;0.77;;;;;;;20.41;35.57;101293.00;4169790;28;20053;-65
2022/04/02 01:55:42;;;;;;;0.60;0.47;;;;;;;20.42;35.43;101291.88;4166991;28;20095;-64
2022/04/02 01:57:43;;;;;;;1.98;0.45;;;;;;;20.43;35.26;101296.34;4165477;28;20107;-65
2022/04/02 01:59:47;;;;;;;1.20;0.50;;;;;;;20.42;35.56;101308.56;4164755;28;20045;-64
2022/04/02 02:01:48;;;;;;;1.05;0.60;;;;;;;20.13;35.02;101264.47;4166772;28;20096;-64
2022/04/02 02:03:49;;;;;;;0.80;0.70;;;;;;;20.42;35.19;101316.91;4166337;28;20115;-64
2022/04/02 02:05:51;;;;;;;1.33;0.43;;;;;;;20.31;35.29;101305.72;4148555;28;20054;-64
2022/04/02 02:07:53;;;;;;;1.08;0.60;;;;;;;20.39;35.12;101317.44;4166219;28;20106;-64
2022/04/02 02:09:57;;;;;;;3.08;0.60;;;;;;;20.41;35.04;101327.19;4165616;28;20033;-64
2022/04/02 02:12:02;;;;;;;1.67;0.80;;;;;;;20.40;35.38;101330.25;4165666;28;20539;-63
2022/04/02 02:14:07;;;;;;;1.27;0.60;;;;;;;20.39;34.97;101334.97;4166655;28;20033;-64
2022/04/02 02:16:08;;;;;;;;;;;;;;;20.37;35.48;101331.59;4167083;28;20041;-63
2022/04/02 02:18:10;;;;;;;0.95;0.60;;;;;;;20.39;34.96;101334.97;4148962;28;19948;-64
2022/04/02 02:20:18;;;;;;;0.60;0.50;;;;;;;20.42;35.38;101341.91;4164661;28;20476;-64
2022/04/02 02:22:19;;;;;;;1.75;0.60;;;;;;;20.36;34.88;101337.44;4166282;28;20037;-64
2022/04/02 02:24:21;;;;;;;0.77;0.57;;;;;;;20.41;35.03;101356.94;4167930;28;20049;-64
2022/04/02 02:26:22;;;;;;;0.60;0.50;;;;;;;20.38;35.10;101352.72;4166782;28;20092;-64
2022/04/02 02:28:23;;;;;;;0.30;0.30;;;;;;;20.40;35.19;101352.47;4166185;28;20486;-64
2022/04/02 02:30:27;;;;;;;0.68;0.40;;;;;;;20.37;34.88;101348.28;4164728;28;20045;-64
2022/04/02 02:32:31;;;;;;;3.45;0.70;;;;;;;20.37;34.94;101353.00;4164008;28;20103;-64
2022/04/02 02:36:52;;;;;;;1.55;0.55;;;;;;;20.33;35.13;101365.75;4166646;28;20092;-65
2022/04/02 02:38:57;;;;;;;2.95;0.60;;;;;;;20.36;35.15;101363.28;4166785;28;20030;-63
2022/04/02 02:40:58;;;;;;;1.05;0.70;;;;;;;20.37;35.05;101375.25;4166828;28;20439;-64
2022/04/02 02:43:03;;;;;;;1.00;0.50;;;;;;;20.37;35.07;101369.69;4166776;28;20029;-64
2022/04/02 02:45:05;;;;;;;1.15;0.50;;;;;;;20.36;34.72;101373.56;4166328;28;20029;-64
2022/04/02 02:47:07;;;;;;;2.85;0.70;;;;;;;20.37;34.88;101380.81;4165508;28;20045;-63
2022/04/02 02:49:08;;;;;;;0.80;0.50;;;;;;;20.36;35.09;101384.69;4165818;28;20099;-63
2022/04/02 02:51:10;;;;;;;0.88;0.60;;;;;;;20.36;34.95;101381.91;4164922;28;20455;-64
2022/04/02 02:53:14;;;;;;;0.50;0.50;;;;;;;20.25;34.96;101384.63;4165279;28;20088;-64
2022/04/02 02:55:16;;;;;;;0.50;0.50;;;;;;;20.22;34.87;101374.03;4165524;28;20476;-65
2022/04/02 02:57:17;;;;;;;2.13;0.50;;;;;;;20.35;34.79;101400.53;4165104;28;20045;-65
2022/04/02 02:59:18;;;;;;;0.55;0.55;;;;;;;20.34;34.93;101398.00;4168578;28;20041;-64
2022/04/02 03:01:19;;;;;;;0.70;0.30;;;;;;;20.34;34.93;101409.94;4165717;28;20531;-64
2022/04/02 03:03:22;;;;;;;0.80;0.38;;;;;;;20.20;34.88;101390.13;4166137;28;20021;-65
2022/04/02 03:05:23;;;;;;;1.30;0.60;;;;;;;20.31;35.19;101422.47;4164136;28;20029;-65
2022/04/02 03:07:28;;;;;;;0.93;0.45;;;;;;;20.35;34.90;101416.38;4164495;28;20107;-66
2022/04/02 03:09:29;;;;;;;0.57;0.50;;;;;;;20.33;34.76;101430.53;4165828;28;20049;-65
2022/04/02 03:11:32;;;;;;;0.95;0.50;;;;;;;20.32;35.05;101428.84;4166175;28;20532;-64
2022/04/02 03:13:38;;;;;;;0.68;0.60;;;;;;;20.34;34.62;101432.19;4165650;28;20542;-65
2022/04/02 03:15:39;;;;;;;0.80;0.60;;;;;;;20.35;34.83;101438.63;4163483;28;20103;-65
2022/04/02 03:17:41;;;;;;;0.70;0.60;;;;;;;20.33;34.53;101446.38;4165163;28;20041;-65
2022/04/02 03:19:46;;;;;;;0.80;0.50;;;;;;;20.31;34.77;101438.31;4164812;28;20042;-65
2022/04/02 03:21:48;;;;;;;1.40;0.77;;;;;;;20.31;34.79;101453.03;4164711;28;20099;-65
2022/04/02 03:23:49;;;;;;;0.52;0.50;;;;;;;20.33;34.85;101457.47;4165416;28;20088;-65
2022/04/02 03:25:51;;;;;;;0.65;0.55;;;;;;;20.33;34.91;101457.47;4164538;28;20041;-65
2022/04/02 03:27:53;;;;;;;0.60;0.47;;;;;;;20.26;34.91;101450.22;4147061;28;20033;-64
2022/04/02 03:29:55;;;;;;;0.65;0.40;;;;;;;20.33;34.81;101460.25;4147899;28;20042;-65
2022/04/02 03:31:59;;;;;;;1.17;0.52;;;;;;;20.33;34.62;101463.03;4164798;28;20123;-64
2022/04/02 03:34:00;;;;;;;0.60;0.50;;;;;;;20.25;34.65;101456.88;4164943;28;20103;-64
2022/04/02 03:36:02;;;;;;;1.08;0.40;;;;;;;20.33;34.70;101471.38;4172176;28;20045;-65
2022/04/02 03:38:14;;;;;;;1.20;0.50;;;;;;;20.18;34.51;101461.81;4181574;28;20095;-65
2022/04/02 03:40:24;;;;;;;1.85;0.77;;;;;;;20.31;34.42;101483.59;4179475;28;20803;-65
2022/04/02 03:42:28;;;;;;;0.68;0.50;;;;;;;20.31;34.66;101488.31;4180002;28;20037;-65
2022/04/02 03:44:33;;;;;;;0.38;0.38;;;;;;;20.14;34.34;101465.38;4180239;28;20430;-65
2022/04/02 03:48:54;;;;;;;0.65;0.52;;;;;;;20.24;34.77;101482.97;4182189;28;20103;-63
2022/04/02 03:50:56;;;;;;;0.70;0.50;;;;;;;20.30;34.59;101498.63;4180660;28;20487;-64
2022/04/02 03:52:57;;;;;;;0.52;0.52;;;;;;;20.29;34.41;101502.47;4181466;28;20041;-64
2022/04/02 03:54:58;;;;;;;0.50;0.40;;;;;;;20.28;34.71;101499.97;4180887;28;20041;-65
2022/04/02 03:57:03;;;;;;;1.00;0.50;;;;;;;20.28;34.47;101506.34;4181062;28;20087;-64
2022/04/02 03:59:05;;;;;;;0.80;0.50;;;;;;;20.28;34.41;101505.53;4181900;28;20426;-65
2022/04/02 04:01:07;;;;;;;0.73;0.40;;;;;;;20.29;34.22;101498.84;4180979;28;20385;-65
2022/04/02 04:03:08;;;;;;;1.95;0.47;;;;;;;20.27;34.42;101503.84;4180727;28;20128;-65
2022/04/02 04:05:15;;;;;;;0.52;0.50;;;;;;;20.26;34.68;101503.00;4180569;28;20045;-65
2022/04/02 04:07:17;;;;;;;0.65;0.52;;;;;;;20.27;34.55;101515.81;4180492;28;20056;-64
2022/04/02 04:09:21;;;;;;;0.60;0.60;;;;;;;20.26;34.46;101508.56;4181778;28;20045;-65
2022/04/02 04:11:23;;;;;;;0.75;0.68;;;;;;;20.26;34.68;101508.56;4180677;28;20037;-64
2022/04/02 04:13:25;;;;;;;0.32;0.32;;;;;;;20.24;34.28;101510.75;4181029;28;20442;-65
2022/04/02 04:15:26;;;;;;;1.13;0.40;;;;;;;20.23;34.71;101506.31;4174708;28;20194;-65
2022/04/02 04:17:30;;;;;;;0.50;0.40;;;;;;;20.11;34.37;101486.16;4181016;28;20048;-65
2022/04/02 04:19:32;;;;;;;0.50;0.50;;;;;;;20.25;34.49;101512.47;4179902;28;20094;-65
2022/04/02 04:21:34;;;;;;;0.52;0.40;;;;;;;20.25;34.25;101519.94;4179320;28;20091;-65
2022/04/02 04:23:38;;;;;;;0.43;0.35;;;;;;;20.24;34.24;101527.44;4180842;28;20037;-65
2022/04/02 04:25:40;;;;;;;1.05;0.60;;;;;;;20.25;34.45;101515.25;4180578;28;20103;-64
2022/04/02 04:27:41;;;;;;;0.40;0.40;;;;;;;20.25;34.16;101551.38;4180857;28;20090;-63
2022/04/02 04:29:42;;;;;;;0.68;0.40;;;;;;;20.23;34.72;101548.00;4180748;28;20037;-64
2022/04/02 04:31:47;;;;;;;1.00;0.50;;;;;;;20.24;34.17;101549.66;4181421;28;20083;-64
2022/04/02 04:33:49;;;;;;;0.50;0.50;;;;;;;20.24;34.58;101552.44;4180500;28;20094;-65
2022/04/02 04:35:50;;;;;;;0.45;0.30;;;;;;;20.26;34.42;101557.75;4178130;28;20083;-64
2022/04/02 04:37:52;;;;;;;0.40;0.40;;;;;;;20.15;34.13;101537.34;4163713;28;20467;-64
2022/04/02 04:39:54;;;;;;;0.55;0.50;;;;;;;20.06;34.25;101525.84;4180000;28;20086;-64
2022/04/02 04:42:01;;;;;;;0.85;0.50;;;;;;;20.23;34.33;101561.06;4180461;28;20099;-64
2022/04/02 04:44:05;;;;;;;0.60;0.55;;;;;;;20.06;34.10;101527.78;4178546;28;20045;-65
2022/04/02 04:46:08;;;;;;;0.63;0.35;;;;;;;20.19;34.16;101557.94;4179967;28;20086;-65
2022/04/02 04:48:09;;;;;;;0.63;0.40;;;;;;;20.23;34.54;101559.13;4180540;28;20091;-63
2022/04/02 04:50:13;;;;;;;1.05;0.43;;;;;;;20.23;34.05;101553.56;4181462;28;20032;-64
2022/04/02 04:52:15;;;;;;;0.98;0.60;;;;;;;20.23;34.40;101570.22;4175185;28;20087;-65
2022/04/02 04:54:19;;;;;;;0.50;0.50;;;;;;;20.23;33.96;101575.78;4179980;28;20543;-64
2022/04/02 04:56:23;;;;;;;0.80;0.50;;;;;;;20.23;34.55;101575.78;4182292;28;20037;-63
2022/04/02 04:58:27;;;;;;;0.70;0.30;;;;;;;20.23;34.12;101577.72;4184082;28;20041;-65
2022/04/02 05:00:29;;;;;;;0.75;0.40;;;;;;;20.09;34.08;101554.22;4166058;28;20088;-65
2022/04/02 05:02:31;;;;;;;0.60;0.50;;;;;;;20.22;34.18;101589.94;4166423;28;20041;-65
2022/04/02 05:04:32;;;;;;;0.80;0.55;;;;;;;20.22;34.42;101590.78;4183531;28;20086;-64
2022/04/02 05:06:37;;;;;;;0.98;0.40;;;;;;;20.10;33.95;101569.78;4183702;28;20041;-64
2022/04/02 05:08:39;;;;;;;0.50;0.50;;;;;;;20.21;34.41;101586.34;4166359;28;20469;-64
2022/04/02 05:10:43;;;;;;;0.90;0.43;;;;;;;20.19;34.23;101588.53;4183482;28;20506;-64
2022/04/02 05:12:45;;;;;;;0.45;0.43;;;;;;;20.20;34.27;101587.41;4184412;28;20518;-64
2022/04/02 05:14:48;;;;;;;0.63;0.43;;;;;;;20.19;33.89;101596.84;4183501;28;20094;-64
2022/04/02 05:16:56;;;;;;;0.43;0.40;;;;;;;20.20;34.07;101604.09;4183575;28;20045;-64
2022/04/02 05:18:58;;;;;;;0.40;0.40;;;;;;;20.14;34.01;101593.19;4182541;28;20041;-65
2022/04/02 05:21:02;;;;;;;0.60;0.40;;;;;;;20.20;34.20;101609.66;4183501;28;20044;-65
2022/04/02 05:23:04;;;;;;;0.40;0.40;;;;;;;20.20;34.18;101609.66;4163796;28;20077;-65
2022/04/02 05:25:06;;;;;;;0.50;0.40;;;;;;;20.19;34.06;101619.09;4184026;28;20033;-64
2022/04/02 05:27:10;;;;;;;0.50;0.43;;;;;;;20.17;34.19;101607.41;4181975;28;20175;-64
2022/04/02 05:29:12;;;;;;;2.05;0.38;;;;;;;20.17;33.79;101610.19;4182837;28;20041;-64
2022/04/02 05:31:13;;;;;;;0.40;0.40;;;;;;;20.18;33.88;101620.19;4183277;28;20423;-65
2022/04/02 05:33:15;;;;;;;0.52;0.40;;;;;;;20.19;33.83;101612.69;4184147;28;20436;-65
2022/04/02 05:35:16;;;;;;;1.42;0.30;;;;;;;20.18;33.92;101611.84;4182755;28;20037;-64
2022/04/02 05:37:17;;;;;;;0.65;0.38;;;;;;;20.18;33.81;101611.03;4183150;28;20041;-65
2022/04/02 05:39:19;;;;;;;0.75;0.40;;;;;;;20.17;33.96;101614.91;4183432;28;20036;-64
2022/04/02 05:41:21;;;;;;;0.93;0.55;;;;;;;20.16;33.86;101611.28;4183174;28;20037;-65
2022/04/02 05:43:22;;;;;;;0.38;0.38;;;;;;;20.16;34.16;101611.28;4183172;28;20041;-65
2022/04/02 05:45:30;;;;;;;0.38;0.38;;;;;;;20.17;34.22;101612.97;4182683;28;20037;-64
2022/04/02 05:47:49;;;;;;;0.43;0.40;;;;;;;20.14;33.86;101616.25;4183131;28;20106;-64
2022/04/02 05:49:52;;;;;;;0.57;0.30;;;;;;;20.16;33.81;101619.63;4181949;28;20036;-65
2022/04/02 05:51:53;;;;;;;0.40;0.40;;;;;;;20.16;33.84;101613.19;4183413;28;20102;-65
2022/04/02 05:53:55;;;;;;;0.30;0.30;;;;;;;20.15;33.80;101622.66;4183066;28;20045;-64
2022/04/02 05:55:57;;;;;;;0.60;0.40;;;;;;;20.14;33.91;101624.59;4182794;28;20075;-64
2022/04/02 05:57:58;;;;;;;0.52;0.40;;;;;;;20.13;33.99;101636.81;4183172;28;20118;-64
2022/04/02 06:00:03;;;;;;;0.25;0.25;;;;;;;20.14;34.11;101632.91;4179780;28;20091;-64
2022/04/02 06:02:05;;;;;;;0.40;0.30;;;;;;;20.14;33.84;101641.25;4161526;28;20049;-66
2022/04/02 06:04:07;;;;;;;0.40;0.40;;;;;;;20.14;33.68;101632.09;4165616;28;20034;-65
2022/04/02 06:06:08;;;;;;;0.40;0.40;;;;;;;20.14;33.87;101644.03;4164933;28;20045;-64
2022/04/02 06:08:12;;;;;;;0.40;0.40;;;;;;;20.05;33.58;101626.13;4166690;28;20378;-63
2022/04/02 06:10:14;;;;;;;0.40;0.40;;;;;;;20.12;33.62;101643.47;4167578;28;20037;-64
2022/04/02 06:12:15;;;;;;;0.38;0.38;;;;;;;20.13;33.67;101641.53;4167821;28;20481;-63
2022/04/02 06:14:17;;;;;;;0.32;0.30;;;;;;;20.01;34.05;101630.53;4168302;28;20260;-66
2022/04/02 06:16:18;;;;;;;0.40;0.40;;;;;;;20.13;34.03;101650.69;4167988;28;20041;-64
2022/04/02 06:18:20;;;;;;;0.40;0.40;;;;;;;20.12;34.16;101654.59;4166032;28;20156;-64
2022/04/02 06:20:22;;;;;;;0.38;0.30;;;;;;;20.13;33.75;101653.47;4166201;28;20100;-64
2022/04/02 06:22:23;;;;;;;0.30;0.30;;;;;;;20.03;33.65;101647.78;4166145;28;20092;-64
2022/04/02 06:24:27;;;;;;;0.30;0.30;;;;;;;20.11;33.89;101664.00;4165716;28;20100;-64
2022/04/02 06:26:28;;;;;;;0.50;0.35;;;;;;;20.10;34.00;101665.09;4165435;28;20480;-63
2022/04/02 06:28:29;;;;;;;0.32;0.20;;;;;;;20.11;33.66;101672.31;4165115;28;20092;-63
2022/04/02 06:30:31;;;;;;;0.47;0.47;;;;;;;20.11;33.56;101675.09;4165809;28;20115;-64
2022/04/02 06:32:32;;;;;;;0.30;0.30;;;;;;;20.12;33.58;101667.63;4166765;28;20038;-63
2022/04/02 06:34:33;;;;;;;0.30;0.30;;;;;;;20.10;33.55;101658.72;4165707;28;20037;-64
2022/04/02 06:36:35;;;;;;;0.47;0.30;;;;;;;20.10;33.93;101670.66;4169146;28;20091;-64
2022/04/02 06:38:36;;;;;;;0.50;0.40;;;;;;;20.11;33.55;101666.78;4165591;28;20041;-63
2022/04/02 06:40:38;;;;;;;0.30;0.30;;;;;;;20.10;33.53;101665.09;4165161;28;20038;-64
2022/04/02 06:42:39;;;;;;;0.55;0.40;;;;;;;20.10;33.59;101667.88;4164580;28;20042;-63
2022/04/02 06:44:40;;;;;;;0.20;0.20;;;;;;;20.09;33.87;101666.22;4165735;28;20476;-64
2022/04/02 06:46:42;;;;;;;0.30;0.20;;;;;;;20.08;33.57;101656.19;4166155;28;20045;-65
2022/04/02 06:48:43;;;;;;;0.35;0.28;;;;;;;20.03;33.88;101642.25;4165917;28;20041;-65
2022/04/02 06:50:47;;;;;;;0.43;0.43;;;;;;;20.05;33.75;101653.91;4148293;28;20436;-64
2022/04/02 06:52:49;;;;;;;0.50;0.50;;;;;;;20.07;33.48;101657.31;4165956;28;20037;-65
2022/04/02 06:54:53;;;;;;;0.65;0.60;;;;;;;19.99;33.93;101641.06;4165408;28;20111;-64
2022/04/02 06:56:55;;;;;;;0.30;0.30;;;;;;;20.09;33.56;101660.66;4165275;28;20570;-64
2022/04/02 06:58:57;;;;;;;1.75;0.30;;;;;;;20.08;33.80;101672.88;4165235;28;20503;-64
2022/04/02 07:00:58;;;;;;;0.30;0.30;;;;;;;20.06;33.80;101663.94;4165535;28;20037;-65
2022/04/02 07:02:59;;;;;;;0.45;0.30;;;;;;;20.05;33.35;101665.88;4164634;28;20111;-65
2022/04/02 07:05:03;;;;;;;0.93;0.40;;;;;;;20.08;33.47;101669.25;4165414;28;20130;-64
2022/04/02 07:07:05;;;;;;;0.20;0.20;;;;;;;20.06;33.80;101666.72;4164805;28;20103;-65
2022/04/02 07:09:09;;;;;;;0.20;0.20;;;;;;;20.02;33.78;101671.97;4165412;28;20037;-65
2022/04/02 07:11:10;;;;;;;0.30;0.28;;;;;;;19.75;33.57;101624.66;4164908;28;20111;-64
2022/04/02 07:13:11;;;;;;;0.22;0.20;;;;;;;20.05;33.52;101668.66;4165722;28;20046;-63
2022/04/02 07:15:13;;;;;;;0.57;0.47;;;;;;;20.04;33.82;101674.47;4164800;28;20362;-64
2022/04/02 07:17:14;;;;;;;0.52;0.40;;;;;;;20.05;33.66;101676.16;4175817;28;20098;-64
2022/04/02 07:19:25;;;;;;;0.20;0.20;;;;;;;20.02;33.76;101669.19;4181458;28;20029;-65
2022/04/02 07:21:31;;;;;;;0.40;0.40;;;;;;;19.99;33.42;101666.91;4180097;28;20033;-64
2022/04/02 07:23:44;;;;;;;0.32;0.30;;;;;;;19.95;33.48;101667.69;4181754;28;20033;-64
2022/04/02 07:25:45;;;;;;;0.20;0.20;;;;;;;20.03;33.57;101681.13;4163762;28;20080;-64
2022/04/02 07:27:51;;;;;;;0.38;0.35;;;;;;;19.97;33.86;101666.31;4181616;28;20480;-64
2022/04/02 07:29:53;;;;;;;0.30;0.30;;;;;;;20.02;33.60;101685.00;4181339;28;20100;-62
2022/04/02 07:31:55;;;;;;;0.30;0.30;;;;;;;20.01;33.44;101681.38;4181498;28;20040;-64
2022/04/02 07:33:56;;;;;;;0.28;0.28;;;;;;;19.98;33.41;101672.72;4164101;28;20046;-65
2022/04/02 07:36:05;;;;;;;0.30;0.30;;;;;;;20.02;33.56;101679.44;4181329;28;20098;-64
2022/04/02 07:38:12;;;;;;;0.40;0.40;;;;;;;20.00;33.48;101676.91;4180877;28;20036;-64
2022/04/02 07:40:24;;;;;;;0.30;0.30;;;;;;;20.00;33.59;101674.16;4181355;28;20037;-65
2022/04/02 07:43:03;;;;;;;0.30;0.30;;;;;;;20.00;33.44;101676.09;4180950;28;20041;-65
2022/04/02 07:45:07;;;;;;;0.20;0.20;;;;;;;19.96;33.46;101681.31;4180668;28;20033;-64
2022/04/02 07:47:16;;;;;;;0.20;0.20;;;;;;;20.01;33.62;101686.09;4178010;28;20071;-65
2022/04/02 07:49:23;;;;;;;0.30;0.30;;;;;;;20.01;33.68;101692.50;4179595;28;20676;-65
2022/04/02 07:51:28;;;;;;;0.20;0.20;;;;;;;20.01;33.58;101694.44;4180580;28;20087;-64
2022/04/02 07:53:41;;;;;;;0.30;0.30;;;;;;;19.96;33.33;101688.81;4179851;28;20476;-65
2022/04/02 07:55:45;;;;;;;0.22;0.22;;;;;;;20.01;33.61;101699.97;4164102;28;20468;-65
2022/04/02 07:57:52;;;;;;;0.40;0.40;;;;;;;19.99;33.45;101688.31;4179141;28;20070;-64
2022/04/02 08:00:03;;;;;;;0.40;0.30;;;;;;;19.99;33.55;101699.41;4180982;28;20041;-65
2022/04/02 08:02:36;;;;;;;0.43;0.32;;;;;;;19.94;33.89;101693.78;4163220;28;20080;-65
2022/04/02 08:04:28;;;;;;;0.30;0.30;;;;;;;19.96;33.53;101708.25;4181412;28;20099;-64
2022/04/02 08:06:37;;;;;;;0.38;0.38;;;;;;;19.87;33.61;101685.63;4180759;28;20083;-63
2022/04/02 08:08:39;;;;;;;0.20;0.20;;;;;;;19.99;33.29;101713.31;4180556;28;20099;-64
2022/04/02 08:10:46;;;;;;;0.40;0.40;;;;;;;19.92;33.56;101707.06;4180846;28;20041;-65
2022/04/02 08:12:50;;;;;;;0.40;0.40;;;;;;;19.98;33.52;101711.63;4180862;28;20094;-66
2022/04/02 08:14:55;;;;;;;0.30;0.30;;;;;;;19.96;33.33;101705.47;4145661;28;20088;-64
2022/04/02 08:17:00;;;;;;;0.30;0.30;;;;;;;19.97;33.19;101710.75;4181184;28;20041;-64
2022/04/02 08:19:05;;;;;;;0.22;0.22;;;;;;;19.98;33.06;101723.56;4180637;28;20037;-64
2022/04/02 08:21:08;;;;;;;0.32;0.32;;;;;;;19.97;33.26;101721.03;4175030;28;20458;-63
2022/04/02 08:23:09;;;;;;;0.50;0.40;;;;;;;19.96;33.13;101724.91;4180649;28;20529;-63
2022/04/02 08:25:13;;;;;;;0.20;0.20;;;;;;;19.95;33.17;101712.97;4179044;28;20103;-64
2022/04/02 08:27:45;;;;;;;0.20;0.20;;;;;;;19.93;33.72;101719.84;4180541;28;20476;-65
2022/04/02 08:30:03;;;;;;;0.40;0.40;;;;;;;19.93;33.31;101726.28;4180361;28;20048;-64
2022/04/02 08:32:36;;;;;;;0.30;0.30;;;;;;;19.95;33.53;101726.03;4181595;28;20021;-64
2022/04/02 08:34:59;;;;;;;0.60;0.20;;;;;;;19.94;33.24;101724.34;4176924;28;20029;-64
2022/04/02 08:37:09;;;;;;;0.40;0.35;;;;;;;19.96;33.16;101724.91;4180430;28;20041;-64
2022/04/02 08:39:26;;;;;;;0.32;0.32;;;;;;;19.94;33.44;101727.13;4180580;28;20476;-65
2022/04/02 08:42:00;;;;;;;0.80;0.28;;;;;;;19.94;33.25;101721.56;4180405;28;20041;-65
2022/04/02 08:44:07;;;;;;;0.30;0.30;;;;;;;19.96;33.38;101730.47;4180143;28;20033;-64
2022/04/02 08:46:20;;;;;;;0.38;0.38;;;;;;;19.94;33.51;101724.34;4180477;28;20095;-64
2022/04/02 08:48:29;;;;;;;0.40;0.40;;;;;;;19.93;33.14;101737.41;4179890;28;20537;-64
2022/04/02 08:50:36;;;;;;;0.32;0.30;;;;;;;19.93;33.63;101742.09;4181214;28;20028;-64
2022/04/02 08:53:01;;;;;;;0.30;0.20;;;;;;;19.92;33.17;101740.41;4180632;28;20106;-64
2022/04/02 08:55:20;;;;;;;0.30;0.30;;;;;;;19.92;33.43;101757.06;4173206;28;20037;-65
2022/04/02 08:57:50;;;;;;;0.20;0.20;;;;;;;19.90;33.34;101759.28;4163943;28;20099;-64
2022/04/02 09:00:13;;;;;;;0.30;0.30;;;;;;;19.90;33.26;101762.91;4162492;28;20046;-63
2022/04/02 09:02:49;;;;;;;0.30;0.30;;;;;;;19.90;33.21;101760.13;4163640;28;20374;-64
2022/04/02 09:04:59;;;;;;;0.32;0.32;;;;;;;19.92;33.27;101763.47;4163228;28;20477;-64
2022/04/02 09:07:40;;;;;;;0.30;0.30;;;;;;;19.91;33.45;101752.63;4163591;28;20107;-63
2022/04/02 09:10:07;;;;;;;0.47;0.32;;;;;;;19.92;33.21;101754.28;4161446;28;20076;-63
2022/04/02 09:12:42;;;;;;;0.43;0.30;;;;;;;19.90;33.15;101759.28;4151628;28;20099;-64
2022/04/02 09:15:01;;;;;;;0.30;0.28;;;;;;;19.91;33.06;101760.97;4164000;28;20049;-64
2022/04/02 09:17:14;;;;;;;0.40;0.30;;;;;;;19.91;33.17;101755.41;4163770;28;20084;-64
2022/04/02 09:19:36;;;;;;;0.20;0.20;;;;;;;19.89;33.45;101769.56;4163468;28;20084;-63
2022/04/02 09:22:15;;;;;;;0.20;0.20;;;;;;;19.88;33.23;101764.22;4163973;28;20071;-63
2022/04/02 09:24:53;;;;;;;0.45;0.20;;;;;;;19.87;33.33;101766.16;4163889;28;20033;-64
2022/04/02 09:27:09;;;;;;;0.30;0.30;;;;;;;19.89;32.92;101763.16;4164553;28;20064;-64
2022/04/02 09:29:28;;;;;;;0.70;0.28;;;;;;;19.85;33.44;101768.38;4163844;28;20127;-64
2022/04/02 09:31:52;;;;;;;0.77;0.38;;;;;;;19.85;33.30;101773.94;4166833;28;20119;-65
2022/04/02 09:34:09;;;;;;;0.35;0.25;;;;;;;19.85;33.46;101773.09;4164059;28;20092;-64
2022/04/02 09:36:16;;;;;;;1.20;0.30;;;;;;;19.88;33.46;101778.13;4163062;28;20041;-65
2022/04/02 09:38:37;;;;;;;0.30;0.30;;;;;;;19.85;33.35;101771.16;4163266;28;20108;-64
2022/04/02 09:40:50;;;;;;;0.45;0.30;;;;;;;19.87;33.39;101793.09;4164299;28;20111;-64
2022/04/02 09:43:00;;;;;;;0.30;0.30;;;;;;;19.85;32.99;101773.94;4167064;28;20041;-63
2022/04/02 09:45:37;;;;;;;0.30;0.30;;;;;;;19.82;33.00;101784.69;4166585;28;20042;-63
2022/04/02 09:47:48;;;;;;;0.35;0.30;;;;;;;19.85;33.33;101790.59;4162769;28;20042;-63